Time;durP1;ratioP1;P1;durP2;ratioP2;P2;SDS_P1;SDS_P2;PMS_P1;PMS_P2;Temp;Humidity;BMP_temperature;BMP_pressure;BME280_temperature;BME280_humidity;BME280_pressure;Samples;Min_cycle;Max_cycle;Signal;HPM_P1;HPM_P2
2023/02/20 00:00:06;;;;;;;;;;;;;;;8.98;nan;102045.38;4983539;28;19957;-84
2023/02/20 00:02:31;;;;;;;;;;;;;;;9.01;nan;102057.53;4983540;28;19980;-85
2023/02/20 00:04:56;;;;;;;;;;;;;;;8.95;nan;102053.78;4983034;28;19930;-85
2023/02/20 00:07:22;;;;;;;;;;;;;;;8.93;nan;102050.50;4985147;28;19917;-84
2023/02/20 00:09:47;;;;;;;;;;;;;;;8.97;nan;102045.56;4983628;28;19917;-84
2023/02/20 00:12:12;;;;;;;;;;;;;;;8.95;nan;102036.94;4985241;28;19985;-85
2023/02/20 00:14:38;;;;;;;;;;;;;;;8.98;nan;102047.25;4983009;28;19926;-84
2023/02/20 00:17:03;;;;;;;;;;;;;;;9.01;nan;102041.47;4985737;28;20004;-84
2023/02/20 00:19:28;;;;;;;;;;;;;;;8.99;nan;102035.53;4983361;28;20189;-85
2023/02/20 00:21:54;;;;;;;;;;;;;;;8.95;nan;102042.28;4984243;28;19924;-84
2023/02/20 00:24:19;;;;;;;;;;;;;;;8.92;nan;102040.03;4982616;28;19926;-84
2023/02/20 00:26:47;;;;;;;;;;;;;;;8.94;nan;102041.47;4984110;28;19926;-84
2023/02/20 00:29:17;;;;;;;;;;;;;;;8.96;nan;102039.41;4984149;28;19952;-84
2023/02/20 00:31:42;;;;;;;;;;;;;;;8.92;nan;102030.16;4985374;28;19922;-84
2023/02/20 00:34:08;;;;;;;;;;;;;;;8.90;nan;102034.06;4982264;28;19918;-84
2023/02/20 00:36:33;;;;;;;;;;;;;;;8.78;nan;102018.63;4982370;28;19925;-84
2023/02/20 00:38:58;;;;;;;;;;;;;;;8.70;nan;102018.84;4985149;28;20013;-85
2023/02/20 00:41:24;;;;;;;;;;;;;;;8.64;nan;102014.31;4984725;28;19953;-84
2023/02/20 00:43:49;;;;;;;;;;;;;;;8.64;nan;102009.00;4987158;28;20398;-84
2023/02/20 00:46:16;;;;;;;;;;;;;;;8.58;nan;102015.13;4982752;28;19966;-84
2023/02/20 00:48:41;;;;;;;;;;;;;;;8.57;nan;102005.47;4982156;28;19977;-84
2023/02/20 00:51:07;;;;;;;;;;;;;;;8.53;nan;102004.25;4968379;28;20358;-84
2023/02/20 00:53:32;;;;;;;;;;;;;;;8.51;nan;101995.59;4985236;28;19922;-84
2023/02/20 00:55:57;;;;;;;;;;;;;;;8.53;nan;101996.22;4983931;28;20144;-84
2023/02/20 00:58:23;;;;;;;;;;;;;;;8.45;nan;101989.25;4983169;28;20008;-84
2023/02/20 01:00:48;;;;;;;;;;;;;;;8.41;nan;101987.16;4985490;28;19925;-85
2023/02/20 01:03:13;;;;;;;;;;;;;;;8.41;nan;101987.16;4984013;28;19930;-84
2023/02/20 01:05:39;;;;;;;;;;;;;;;8.40;nan;101985.50;4984542;28;19925;-85
2023/02/20 01:08:04;;;;;;;;;;;;;;;8.36;nan;101985.09;4984510;28;19974;-84
2023/02/20 01:10:30;;;;;;;;;;;;;;;8.32;nan;101981.16;4982335;28;19926;-84
2023/02/20 01:12:55;;;;;;;;;;;;;;;8.30;nan;101982.41;4987656;28;19928;-84
2023/02/20 01:15:20;;;;;;;;;;;;;;;8.31;nan;101979.53;4986924;28;19918;-84
2023/02/20 01:17:46;;;;;;;;;;;;;;;8.29;nan;101988.78;4989719;28;19933;-84
2023/02/20 01:20:11;;;;;;;;;;;;;;;8.28;nan;101987.13;4983832;28;20068;-84
2023/02/20 01:22:36;;;;;;;;;;;;;;;8.27;nan;101980.97;4985482;28;19922;-85
2023/02/20 01:25:02;;;;;;;;;;;;;;;8.25;nan;101966.97;4986068;28;19968;-84
2023/02/20 01:27:27;;;;;;;;;;;;;;;8.25;nan;101963.47;4983966;28;20354;-84
2023/02/20 01:29:53;;;;;;;;;;;;;;;8.22;nan;101958.53;4987024;28;19932;-84
2023/02/20 01:32:18;;;;;;;;;;;;;;;8.24;nan;101943.97;4983334;28;20481;-84
2023/02/20 01:34:43;;;;;;;;;;;;;;;8.23;nan;101931.63;4987447;28;20414;-84
2023/02/20 01:37:12;;;;;;;;;;;;;;;8.27;nan;101926.75;4982227;28;19926;-84
2023/02/20 01:39:37;;;;;;;;;;;;;;;8.28;nan;101931.06;4986568;28;20430;-85
2023/02/20 01:42:05;;;;;;;;;;;;;;;8.35;nan;101921.22;4985405;28;19997;-84
2023/02/20 01:44:32;;;;;;;;;;;;;;;8.38;nan;101918.13;4984252;28;20380;-85
2023/02/20 01:46:58;;;;;;;;;;;;;;;8.37;nan;101911.16;4976811;28;19925;-84
2023/02/20 01:49:45;;;;;;;;;;;;;;;8.38;nan;101907.44;4967392;28;19922;-84
2023/02/20 01:52:39;;;;;;;;;;;;;;;8.44;nan;101922.69;4981433;28;20106;-84
2023/02/20 01:55:07;;;;;;;;;;;;;;;8.43;nan;101913.81;4979119;28;19925;-84
2023/02/20 01:57:34;;;;;;;;;;;;;;;8.46;nan;101912.59;4985270;28;20524;-84
2023/02/20 02:00:05;;;;;;;;;;;;;;;8.44;nan;101906.66;4972197;28;19924;-84
2023/02/20 02:02:32;;;;;;;;;;;;;;;8.47;nan;101901.72;4982415;28;20281;-84
2023/02/20 02:04:58;;;;;;;;;;;;;;;8.53;nan;101900.06;4984241;28;19922;-84
2023/02/20 02:07:24;;;;;;;;;;;;;;;8.53;nan;101869.84;4981116;28;20442;-85
2023/02/20 02:09:54;;;;;;;;;;;;;;;8.56;nan;101875.59;4986006;28;19918;-84
2023/02/20 02:12:21;;;;;;;;;;;;;;;8.55;nan;101871.28;4985041;28;20298;-84
2023/02/20 02:14:46;;;;;;;;;;;;;;;8.56;nan;101874.78;4983891;28;19928;-84
2023/02/20 02:17:12;;;;;;;;;;;;;;;8.58;nan;101873.53;4982396;28;19921;-84
2023/02/20 02:19:43;;;;;;;;;;;;;;;8.64;nan;101861.22;4982075;28;20334;-84
2023/02/20 02:22:29;;;;;;;;;;;;;;;8.63;nan;101857.72;4982162;28;20012;-84
2023/02/20 02:24:54;;;;;;;;;;;;;;;8.68;nan;101854.44;4956862;28;20407;-84
2023/02/20 02:27:23;;;;;;;;;;;;;;;8.71;nan;101844.13;4981297;28;19918;-84
2023/02/20 02:29:48;;;;;;;;;;;;;;;8.73;nan;101835.91;4981162;28;19918;-84
2023/02/20 02:32:23;;;;;;;;;;;;;;;8.76;nan;101836.31;4982139;28;19964;-84
2023/02/20 02:34:57;;;;;;;;;;;;;;;8.79;nan;101841.22;4986208;28;19957;-84
2023/02/20 02:37:29;;;;;;;;;;;;;;;8.73;nan;101831.38;4980699;28;19925;-84
2023/02/20 02:40:00;;;;;;;;;;;;;;;8.78;nan;101838.78;4984343;28;20398;-85
2023/02/20 02:42:39;;;;;;;;;;;;;;;8.72;nan;101837.75;4983475;28;20000;-84
2023/02/20 02:45:21;;;;;;;;;;;;;;;8.82;nan;101839.19;4984673;28;19981;-84
2023/02/20 02:47:53;;;;;;;;;;;;;;;8.84;nan;101827.25;4982162;28;19921;-85
2023/02/20 02:50:22;;;;;;;;;;;;;;;8.89;nan;101819.44;4978665;28;20421;-84
2023/02/20 02:52:49;;;;;;;;;;;;;;;8.99;nan;101809.13;4982194;28;20001;-84
2023/02/20 02:55:20;;;;;;;;;;;;;;;9.10;nan;101804.94;4984777;28;19929;-84
2023/02/20 02:57:46;;;;;;;;;;;;;;;9.11;nan;101803.91;4982735;28;19925;-84
2023/02/20 03:00:17;;;;;;;;;;;;;;;9.06;nan;101795.72;4983058;28;19924;-84
2023/02/20 03:02:55;;;;;;;;;;;;;;;9.10;nan;101788.91;4986680;28;20000;-84
2023/02/20 03:05:23;;;;;;;;;;;;;;;9.12;nan;101783.34;4983657;28;19925;-84
2023/02/20 03:07:51;;;;;;;;;;;;;;;9.19;nan;101793.00;5000454;23;20017;-81
2023/02/20 03:10:19;;;;;;;;;;;;;;;9.20;nan;101783.94;4991878;28;19929;-82
2023/02/20 03:12:47;;;;;;;;;;;;;;;9.20;nan;101783.94;4978708;28;19941;-81
2023/02/20 03:15:36;;;;;;;;;;;;;;;9.25;nan;101777.94;4981183;28;19928;-82
2023/02/20 03:18:10;;;;;;;;;;;;;;;9.26;nan;101775.03;4982449;28;19935;-81
2023/02/20 03:20:39;;;;;;;;;;;;;;;9.28;nan;101775.66;4981121;28;20575;-82
2023/02/20 03:23:05;;;;;;;;;;;;;;;9.35;nan;101768.44;4978094;28;19936;-82
2023/02/20 03:25:35;;;;;;;;;;;;;;;9.42;nan;101759.53;4982588;28;20260;-81
2023/02/20 03:28:06;;;;;;;;;;;;;;;9.46;nan;101760.72;4982826;28;19918;-82
2023/02/20 03:30:31;;;;;;;;;;;;;;;9.44;nan;101747.56;4995327;28;19918;-82
2023/02/20 03:44:06;;;;;;;;;;;;;;;9.46;nan;101723.28;4978450;28;19929;-82
2023/02/20 03:46:34;;;;;;;;;;;;;;;9.45;nan;101727.00;4981538;28;19917;-82
2023/02/20 03:49:03;;;;;;;;;;;;;;;9.44;nan;101725.34;4981107;28;19918;-81
2023/02/20 03:51:29;;;;;;;;;;;;;;;9.45;nan;101732.34;4982278;28;20303;-82
2023/02/20 03:53:54;;;;;;;;;;;;;;;9.47;nan;101731.09;4982648;28;19926;-81
2023/02/20 03:56:24;;;;;;;;;;;;;;;9.52;nan;101723.25;4979406;28;19925;-81
2023/02/20 03:58:54;;;;;;;;;;;;;;;9.55;nan;101717.47;4973512;28;19918;-82
2023/02/20 04:01:20;;;;;;;;;;;;;;;9.59;nan;101709.81;4979552;28;19988;-81
2023/02/20 04:03:48;;;;;;;;;;;;;;;9.58;nan;101717.03;4979699;28;19922;-81
2023/02/20 04:06:15;;;;;;;;;;;;;;;9.62;nan;101722.75;4977928;28;19924;-81
2023/02/20 04:08:43;;;;;;;;;;;;;;;9.73;nan;101723.91;4975727;28;20372;-82
2023/02/20 04:11:12;;;;;;;;;;;;;;;9.78;nan;101722.22;4979249;28;20024;-81
2023/02/20 04:13:38;;;;;;;;;;;;;;;9.74;nan;101718.34;4981461;28;19965;-81
2023/02/20 04:16:03;;;;;;;;;;;;;;;9.75;nan;101714.63;4984510;28;20032;-81
2023/02/20 04:18:29;;;;;;;;;;;;;;;9.77;nan;101701.03;4977713;28;20660;-81
2023/02/20 04:20:56;;;;;;;;;;;;;;;9.75;nan;101706.59;4978899;28;19976;-82
2023/02/20 04:23:23;;;;;;;;;;;;;;;9.78;nan;101706.16;4975795;28;19933;-81
2023/02/20 04:25:48;;;;;;;;;;;;;;;9.80;nan;101697.91;4980195;28;19926;-81
2023/02/20 04:28:15;;;;;;;;;;;;;;;9.74;nan;101701.47;4984534;28;21602;-82
2023/02/20 04:30:40;;;;;;;;;;;;;;;9.77;nan;101690.31;4983586;28;19926;-82
2023/02/20 04:33:06;;;;;;;;;;;;;;;9.69;nan;101686.91;4996380;28;19989;-82
2023/02/20 04:35:31;;;;;;;;;;;;;;;9.73;nan;101689.94;4983366;28;19922;-82
2023/02/20 04:37:56;;;;;;;;;;;;;;;9.76;nan;101689.50;4983888;28;19961;-82
2023/02/20 04:40:22;;;;;;;;;;;;;;;9.78;nan;101668.69;4980708;28;19929;-82
2023/02/20 04:42:48;;;;;;;;;;;;;;;9.82;nan;101663.72;4982731;28;19921;-82
2023/02/20 04:45:13;;;;;;;;;;;;;;;9.87;nan;101659.31;4984463;28;19976;-82
2023/02/20 04:47:39;;;;;;;;;;;;;;;9.86;nan;101652.31;4982069;28;19925;-81
2023/02/20 04:50:04;;;;;;;;;;;;;;;9.85;nan;101642.66;4983625;28;19918;-82
2023/02/20 04:52:30;;;;;;;;;;;;;;;9.90;nan;101634.00;4982145;28;19932;-82
2023/02/20 04:54:55;;;;;;;;;;;;;;;9.89;nan;101630.50;4980712;28;19925;-82
2023/02/20 04:57:21;;;;;;;;;;;;;;;9.90;nan;101621.44;4980078;28;19922;-82
2023/02/20 04:59:46;;;;;;;;;;;;;;;9.97;nan;101629.38;4982149;28;19917;-82
2023/02/20 05:02:12;;;;;;;;;;;;;;;9.99;nan;101622.75;4981019;28;20322;-82
2023/02/20 05:04:37;;;;;;;;;;;;;;;9.98;nan;101628.34;4981010;28;20008;-82
2023/02/20 05:07:02;;;;;;;;;;;;;;;9.96;nan;101628.56;4981303;28;19918;-82
2023/02/20 05:09:28;;;;;;;;;;;;;;;10.01;nan;101622.53;4983720;28;19926;-82
2023/02/20 05:11:53;;;;;;;;;;;;;;;10.08;nan;101625.97;4984156;28;19919;-82
2023/02/20 05:14:19;;;;;;;;;;;;;;;10.12;nan;101610.28;4981330;28;19922;-82
2023/02/20 05:16:44;;;;;;;;;;;;;;;10.15;nan;101607.13;4984677;28;19924;-82
2023/02/20 05:19:10;;;;;;;;;;;;;;;10.15;nan;101602.59;4981504;28;19930;-82
2023/02/20 05:24:20;;;;;;;;;;;;;;;10.18;nan;101602.16;4981796;28;20005;-82
2023/02/20 05:26:46;;;;;;;;;;;;;;;10.17;nan;101571.06;4983266;28;19918;-82
2023/02/20 05:29:12;;;;;;;;;;;;;;;10.21;nan;101564.22;4986204;28;19922;-83
2023/02/20 05:31:40;;;;;;;;;;;;;;;10.27;nan;101552.63;4986914;28;20020;-82
2023/02/20 05:34:06;;;;;;;;;;;;;;;10.29;nan;101553.22;4979444;28;19919;-82
2023/02/20 05:36:31;;;;;;;;;;;;;;;10.28;nan;101545.41;4979858;28;20542;-83
2023/02/20 05:38:57;;;;;;;;;;;;;;;10.28;nan;101546.22;4982575;28;19925;-83
2023/02/20 05:41:22;;;;;;;;;;;;;;;10.25;nan;101545.88;4981549;28;20122;-83
2023/02/20 05:43:48;;;;;;;;;;;;;;;10.34;nan;101544.50;4979182;28;19930;-83
2023/02/20 05:46:14;;;;;;;;;;;;;;;10.38;nan;101536.81;4978561;28;19922;-83
2023/02/20 05:48:39;;;;;;;;;;;;;;;10.38;nan;101537.63;4983690;28;19918;-83
2023/02/20 05:51:05;;;;;;;;;;;;;;;10.36;nan;101523.66;4981618;28;19922;-83
2023/02/20 05:53:30;;;;;;;;;;;;;;;10.42;nan;101519.28;4979681;28;19932;-84
2023/02/20 05:55:56;;;;;;;;;;;;;;;10.39;nan;101519.69;4984173;28;19925;-83
2023/02/20 05:58:21;;;;;;;;;;;;;;;10.43;nan;101518.22;4980409;28;19964;-83
2023/02/20 06:00:46;;;;;;;;;;;;;;;10.46;nan;101507.88;4984667;28;20029;-83
2023/02/20 06:03:15;;;;;;;;;;;;;;;10.39;nan;101495.59;4975899;28;19926;-82
2023/02/20 06:05:40;;;;;;;;;;;;;;;10.44;nan;101490.38;4982306;28;19981;-82
2023/02/20 06:08:06;;;;;;;;;;;;;;;10.49;nan;101488.66;4977233;28;20395;-82
2023/02/20 06:10:31;;;;;;;;;;;;;;;10.56;nan;101484.00;4976727;28;20016;-83
2023/02/20 06:12:56;;;;;;;;;;;;;;;10.50;nan;101476.06;4981406;28;19924;-82
2023/02/20 06:15:22;;;;;;;;;;;;;;;10.46;nan;101472.22;4980325;28;20363;-82
2023/02/20 06:17:47;;;;;;;;;;;;;;;10.52;nan;101463.25;4980094;28;19926;-82
2023/02/20 06:20:12;;;;;;;;;;;;;;;10.58;nan;101468.50;4977421;28;19928;-82
2023/02/20 06:22:38;;;;;;;;;;;;;;;10.64;nan;101458.75;4979362;28;19917;-83
2023/02/20 06:25:03;;;;;;;;;;;;;;;10.54;nan;101461.16;4981467;28;19926;-82
2023/02/20 06:27:29;;;;;;;;;;;;;;;10.53;nan;101462.19;4996227;28;19922;-82
2023/02/20 06:29:54;;;;;;;;;;;;;;;10.57;nan;101464.19;4979478;28;19980;-82
2023/02/20 06:32:20;;;;;;;;;;;;;;;10.62;nan;101460.84;4980234;28;20354;-83
2023/02/20 06:34:45;;;;;;;;;;;;;;;10.65;nan;101462.22;4978431;28;19925;-82
2023/02/20 06:37:11;;;;;;;;;;;;;;;10.66;nan;101451.28;4976997;28;20016;-82
2023/02/20 06:39:36;;;;;;;;;;;;;;;10.70;nan;101454.31;4983222;28;19967;-83
2023/02/20 06:42:02;;;;;;;;;;;;;;;10.77;nan;101463.03;4982098;28;19961;-83
2023/02/20 06:44:27;;;;;;;;;;;;;;;10.78;nan;101457.47;4982783;28;20023;-83
2023/02/20 06:46:52;;;;;;;;;;;;;;;10.78;nan;101459.34;4980212;28;19918;-83
2023/02/20 06:49:18;;;;;;;;;;;;;;;10.87;nan;101447.22;4976842;28;19928;-84
2023/02/20 06:51:43;;;;;;;;;;;;;;;10.82;nan;101433.69;4978912;28;19929;-84
2023/02/20 06:54:10;;;;;;;;;;;;;;;10.86;nan;101422.28;4981440;28;19926;-85
2023/02/20 06:56:35;;;;;;;;;;;;;;;10.86;nan;101416.91;4978154;28;19944;-84
2023/02/20 06:59:02;;;;;;;;;;;;;;;10.89;nan;101402.22;4984395;28;20375;-85
2023/02/20 07:01:29;;;;;;;;;;;;;;;10.83;nan;101429.97;4986340;28;19922;-85
2023/02/20 07:03:56;;;;;;;;;;;;;;;10.86;nan;101430.31;4980537;28;19926;-85
2023/02/20 07:06:22;;;;;;;;;;;;;;;10.91;nan;101451.06;4993941;28;20500;-84
2023/02/20 07:08:47;;;;;;;;;;;;;;;10.95;nan;101438.00;4981904;28;20883;-84
2023/02/20 07:11:13;;;;;;;;;;;;;;;11.02;nan;101423.44;4980177;28;20020;-84
2023/02/20 07:13:38;;;;;;;;;;;;;;;11.04;nan;101431.25;4985898;28;19945;-83
2023/02/20 07:16:04;;;;;;;;;;;;;;;11.08;nan;101441.25;4996682;28;20399;-83
2023/02/20 07:18:29;;;;;;;;;;;;;;;11.12;nan;101431.69;4980776;28;19996;-83
2023/02/20 07:20:55;;;;;;;;;;;;;;;11.15;nan;101419.69;4981877;28;19917;-83
2023/02/20 07:23:20;;;;;;;;;;;;;;;11.19;nan;101405.56;4982147;28;19930;-84
2023/02/20 07:25:46;;;;;;;;;;;;;;;11.28;nan;101397.16;4982457;28;19918;-84
2023/02/20 07:28:12;;;;;;;;;;;;;;;11.22;nan;101392.75;4981455;28;19922;-83
2023/02/20 07:30:37;;;;;;;;;;;;;;;11.23;nan;101386.31;4981325;28;19928;-82
2023/02/20 07:33:03;;;;;;;;;;;;;;;11.30;nan;101378.94;4980999;28;20198;-82
2023/02/20 07:35:28;;;;;;;;;;;;;;;11.36;nan;101386.06;4988469;28;20012;-83
2023/02/20 07:37:54;;;;;;;;;;;;;;;11.38;nan;101389.31;4979309;28;19925;-83
2023/02/20 07:40:19;;;;;;;;;;;;;;;11.40;nan;101363.88;4979974;28;20020;-82
2023/02/20 07:42:45;;;;;;;;;;;;;;;11.43;nan;101359.91;4984257;28;19949;-82
2023/02/20 07:45:11;;;;;;;;;;;;;;;11.48;nan;101363.50;4981382;28;20398;-84
2023/02/20 07:47:36;;;;;;;;;;;;;;;11.48;nan;101357.31;4982884;28;19925;-82
2023/02/20 07:50:02;;;;;;;;;;;;;;;11.49;nan;101349.03;4984356;28;19964;-82
2023/02/20 07:52:27;;;;;;;;;;;;;;;11.57;nan;101341.66;4983800;28;19921;-83
2023/02/20 07:54:52;;;;;;;;;;;;;;;11.57;nan;101331.72;4979295;28;19930;-83
2023/02/20 07:57:18;;;;;;;;;;;;;;;11.61;nan;101316.78;4983345;28;19918;-84
2023/02/20 07:59:43;;;;;;;;;;;;;;;11.58;nan;101298.47;4985074;28;19921;-84
2023/02/20 08:02:09;;;;;;;;;;;;;;;11.59;nan;101294.72;4984829;28;20318;-82
2023/02/20 08:04:34;;;;;;;;;;;;;;;11.71;nan;101294.69;4982796;28;19922;-82
2023/02/20 08:06:59;;;;;;;;;;;;;;;11.66;nan;101290.00;4984596;28;19921;-83
2023/02/20 08:09:25;;;;;;;;;;;;;;;11.69;nan;101288.75;4983266;28;19973;-83
2023/02/20 08:11:50;;;;;;;;;;;;;;;11.69;nan;101284.19;4983383;28;20367;-83
2023/02/20 08:14:15;;;;;;;;;;;;;;;11.75;nan;101267.09;4985418;28;20292;-83
2023/02/20 08:16:41;;;;;;;;;;;;;;;11.85;nan;101265.66;4985623;28;19956;-83
2023/02/20 08:19:06;;;;;;;;;;;;;;;11.79;nan;101246.78;4984552;28;19932;-83
2023/02/20 08:21:31;;;;;;;;;;;;;;;11.82;nan;101244.66;4979855;28;19946;-82
2023/02/20 08:23:57;;;;;;;;;;;;;;;11.79;nan;101236.03;4984426;28;19929;-82
2023/02/20 08:26:22;;;;;;;;;;;;;;;11.83;nan;101236.38;4981378;28;19933;-84
2023/02/20 08:28:48;;;;;;;;;;;;;;;11.94;nan;101226.63;4988168;28;20755;-82
2023/02/20 08:31:14;;;;;;;;;;;;;;;11.92;nan;101226.88;4984812;28;19972;-82
2023/02/20 08:33:39;;;;;;;;;;;;;;;11.92;nan;101223.38;4989254;28;20396;-83
2023/02/20 08:36:05;;;;;;;;;;;;;;;11.97;nan;101210.00;4987014;28;19929;-83
2023/02/20 08:38:33;;;;;;;;;;;;;;;12.00;nan;101204.13;4979243;28;19965;-82
2023/02/20 08:40:59;;;;;;;;;;;;;;;12.04;nan;101210.66;4986639;28;20151;-83
2023/02/20 08:43:24;;;;;;;;;;;;;;;12.14;nan;101193.88;4977887;28;19973;-83
2023/02/20 08:45:49;;;;;;;;;;;;;;;12.15;nan;101174.81;4988913;28;19964;-83
2023/02/20 08:48:15;;;;;;;;;;;;;;;12.24;nan;101183.28;4982590;28;19922;-83
2023/02/20 08:50:41;;;;;;;;;;;;;;;12.30;nan;101188.47;4972428;28;20387;-83
2023/02/20 08:53:07;;;;;;;;;;;;;;;12.30;nan;101161.59;4981538;28;19925;-83
2023/02/20 08:55:32;;;;;;;;;;;;;;;12.31;nan;101168.59;4984582;28;20326;-83
2023/02/20 08:57:57;;;;;;;;;;;;;;;12.31;nan;101163.22;4983485;28;19926;-83
2023/02/20 09:00:23;;;;;;;;;;;;;;;12.36;nan;101159.78;4983516;28;19960;-83
2023/02/20 09:02:48;;;;;;;;;;;;;;;12.40;nan;101161.72;4980100;28;19932;-83
2023/02/20 09:05:14;;;;;;;;;;;;;;;12.44;nan;101148.59;4979916;28;19925;-82
2023/02/20 09:07:40;;;;;;;;;;;;;;;12.48;nan;101148.91;4982606;28;20335;-83
2023/02/20 09:10:05;;;;;;;;;;;;;;;12.62;nan;101134.03;4974914;28;19921;-84
2023/02/20 09:12:31;;;;;;;;;;;;;;;12.69;nan;101140.81;4984038;28;19957;-87
2023/02/20 09:14:59;;;;;;;;;;;;;;;12.68;nan;101128.44;4981777;28;19918;-83
2023/02/20 09:17:25;;;;;;;;;;;;;;;12.68;nan;101131.13;4980538;28;19925;-83
2023/02/20 09:19:50;;;;;;;;;;;;;;;12.74;nan;101110.47;4985309;28;19972;-86
2023/02/20 09:22:20;;;;;;;;;;;;;;;12.79;nan;101117.81;4985532;28;20215;-83
2023/02/20 09:24:46;;;;;;;;;;;;;;;12.80;nan;101117.56;4984224;28;20150;-85
2023/02/20 09:27:11;;;;;;;;;;;;;;;12.82;nan;101112.72;4981794;28;20414;-84
2023/02/20 09:29:39;;;;;;;;;;;;;;;12.90;nan;101111.44;4984850;28;20165;-84
2023/02/20 09:32:05;;;;;;;;;;;;;;;12.93;nan;101106.41;4979822;28;20005;-83
2023/02/20 09:34:30;;;;;;;;;;;;;;;12.96;nan;101107.75;4979818;28;19930;-83
2023/02/20 09:36:56;;;;;;;;;;;;;;;13.01;nan;101119.38;4976291;28;19925;-83
2023/02/20 09:39:21;;;;;;;;;;;;;;;13.12;nan;101106.03;4979527;28;19922;-83
2023/02/20 09:42:02;;;;;;;;;;;;;;;13.18;nan;101091.56;4981186;28;19921;-85
2023/02/20 09:44:30;;;;;;;;;;;;;;;13.27;nan;101098.88;4978278;28;20172;-84
2023/02/20 09:47:02;;;;;;;;;;;;;;;13.32;nan;101091.94;4981239;28;19968;-84
2023/02/20 09:49:32;;;;;;;;;;;;;;;13.32;nan;101087.38;4997207;28;19921;-82
2023/02/20 09:52:03;;;;;;;;;;;;;;;13.42;nan;101086.63;4974727;28;20318;-83
2023/02/20 09:54:31;;;;;;;;;;;;;;;13.49;nan;101060.31;4984861;28;20343;-83
2023/02/20 09:56:59;;;;;;;;;;;;;;;13.51;nan;101069.75;4985280;28;19918;-84
2023/02/20 09:59:31;;;;;;;;;;;;;;;13.64;nan;101062.25;4975286;28;19925;-84
2023/02/20 10:02:16;;;;;;;;;;;;;;;13.63;nan;101057.94;4980480;28;19917;-83
2023/02/20 10:04:43;;;;;;;;;;;;;;;13.68;nan;101047.22;4974962;28;19988;-83
2023/02/20 10:07:23;;;;;;;;;;;;;;;13.69;nan;101041.59;4982840;28;19977;-84
2023/02/20 10:09:49;;;;;;;;;;;;;;;13.70;nan;101040.50;4979031;28;19922;-84
2023/02/20 10:12:17;;;;;;;;;;;;;;;13.75;nan;101037.03;4981766;28;19918;-82
2023/02/20 10:14:58;;;;;;;;;;;;;;;13.81;nan;101036.78;4977935;28;19925;-83
2023/02/20 10:17:29;;;;;;;;;;;;;;;13.89;nan;101017.44;4981953;28;20407;-84
2023/02/20 10:19:57;;;;;;;;;;;;;;;13.98;nan;101031.19;4979893;28;19964;-82
2023/02/20 10:22:27;;;;;;;;;;;;;;;14.03;nan;101017.75;4985142;28;19922;-83
2023/02/20 10:25:11;;;;;;;;;;;;;;;14.03;nan;101023.16;4982138;28;20458;-84
2023/02/20 10:27:51;;;;;;;;;;;;;;;14.03;nan;101016.94;4982931;28;19922;-83
2023/02/20 10:30:23;;;;;;;;;;;;;;;14.05;nan;101021.00;4986768;28;19918;-84
2023/02/20 10:32:55;;;;;;;;;;;;;;;14.19;nan;101030.22;4986035;28;20296;-84
2023/02/20 10:35:23;;;;;;;;;;;;;;;14.21;nan;101019.16;4980277;28;19918;-84
2023/02/20 10:37:52;;;;;;;;;;;;;;;14.26;nan;101012.97;4980071;28;20082;-83
2023/02/20 10:40:36;;;;;;;;;;;;;;;14.33;nan;101022.41;4985409;28;19975;-84
2023/02/20 10:43:11;;;;;;;;;;;;;;;14.41;nan;101030.00;4984954;28;19922;-83
2023/02/20 10:45:53;;;;;;;;;;;;;;;14.42;nan;101020.03;4974060;28;20066;-82
2023/02/20 10:48:18;;;;;;;;;;;;;;;14.50;nan;101039.19;4980804;28;20004;-83
2023/02/20 10:51:02;;;;;;;;;;;;;;;14.48;nan;101035.16;4984526;28;20008;-84
2023/02/20 10:53:42;;;;;;;;;;;;;;;14.50;nan;101028.41;4988480;28;19918;-84
2023/02/20 10:56:11;;;;;;;;;;;;;;;14.50;nan;101036.50;4978954;28;19928;-83
2023/02/20 10:58:46;;;;;;;;;;;;;;;14.57;nan;101044.34;4977241;28;20460;-83
2023/02/20 11:01:19;;;;;;;;;;;;;;;14.56;nan;101047.31;4984584;28;19926;-84
2023/02/20 11:03:51;;;;;;;;;;;;;;;14.57;nan;101046.22;4985830;28;19932;-84
2023/02/20 11:06:19;;;;;;;;;;;;;;;14.65;nan;101051.91;4981467;28;19917;-85
2023/02/20 11:08:46;;;;;;;;;;;;;;;14.66;nan;101042.72;4983449;28;20371;-84
2023/02/20 11:11:23;;;;;;;;;;;;;;;14.66;nan;101047.31;4979231;28;19930;-83
2023/02/20 11:13:48;;;;;;;;;;;;;;;14.76;nan;101066.22;4982765;28;19918;-85
2023/02/20 11:16:21;;;;;;;;;;;;;;;14.80;nan;101041.13;4982853;28;20379;-82
2023/02/20 11:18:47;;;;;;;;;;;;;;;14.74;nan;101049.50;4986209;28;19918;-82
2023/02/20 11:21:32;;;;;;;;;;;;;;;14.70;nan;101041.09;4974647;28;19922;-83
2023/02/20 11:24:15;;;;;;;;;;;;;;;14.80;nan;101043.81;4980063;28;19944;-85
2023/02/20 11:26:41;;;;;;;;;;;;;;;14.77;nan;101055.16;4981119;28;19918;-83
2023/02/20 11:29:09;;;;;;;;;;;;;;;14.80;nan;101038.44;4977535;28;20283;-84
2023/02/20 11:31:34;;;;;;;;;;;;;;;14.75;nan;101040.31;4978424;28;20406;-84
2023/02/20 11:34:00;;;;;;;;;;;;;;;14.86;nan;101044.63;4982161;28;19953;-83
2023/02/20 11:36:27;;;;;;;;;;;;;;;14.85;nan;101026.00;4986790;28;20012;-83
2023/02/20 11:38:57;;;;;;;;;;;;;;;14.79;nan;101036.81;4980687;28;19929;-84
2023/02/20 11:41:31;;;;;;;;;;;;;;;14.79;nan;101036.81;4988152;28;20458;-84
2023/02/20 11:44:14;;;;;;;;;;;;;;;14.78;nan;101023.59;4979976;28;19930;-84
2023/02/20 11:46:39;;;;;;;;;;;;;;;14.71;nan;101023.03;4986975;28;19918;-83
2023/02/20 11:49:10;;;;;;;;;;;;;;;14.75;nan;101024.94;4986058;28;19926;-84
2023/02/20 11:51:38;;;;;;;;;;;;;;;14.77;nan;101020.09;4988849;28;19929;-83
2023/02/20 11:54:07;;;;;;;;;;;;;;;14.82;nan;101028.19;4984008;28;20339;-83
2023/02/20 11:56:32;;;;;;;;;;;;;;;14.91;nan;101024.97;4986377;28;19918;-83
2023/02/20 11:59:12;;;;;;;;;;;;;;;14.84;nan;101021.69;4981992;28;19929;-83
2023/02/20 12:01:38;;;;;;;;;;;;;;;14.88;nan;101022.78;4981036;28;19980;-83
2023/02/20 12:04:17;;;;;;;;;;;;;;;14.90;nan;101021.44;4980381;28;19925;-84
2023/02/20 12:06:42;;;;;;;;;;;;;;;14.89;nan;101014.41;4988699;28;19976;-82
2023/02/20 12:09:15;;;;;;;;;;;;;;;14.92;nan;101013.91;4983663;28;19922;-83
2023/02/20 12:11:41;;;;;;;;;;;;;;;14.89;nan;101019.81;4985157;28;19917;-83
2023/02/20 12:14:11;;;;;;;;;;;;;;;14.89;nan;101025.19;4978060;28;20453;-84
2023/02/20 12:16:49;;;;;;;;;;;;;;;14.88;nan;101017.38;4980600;28;19929;-83
2023/02/20 12:19:20;;;;;;;;;;;;;;;14.85;nan;101001.75;4983609;28;19928;-84
2023/02/20 12:22:04;;;;;;;;;;;;;;;14.79;nan;100999.06;4978570;28;20271;-83
2023/02/20 12:24:45;;;;;;;;;;;;;;;14.81;nan;101002.28;4982859;28;20336;-84
2023/02/20 12:27:34;;;;;;;;;;;;;;;14.84;nan;101000.13;4986509;28;21193;-83
2023/02/20 12:30:02;;;;;;;;;;;;;;;14.89;nan;101008.22;4963403;28;19921;-83
2023/02/20 12:32:28;;;;;;;;;;;;;;;14.89;nan;101013.59;4984081;28;19922;-83
2023/02/20 12:34:58;;;;;;;;;;;;;;;14.90;nan;101013.38;4986295;28;19922;-84
2023/02/20 12:37:24;;;;;;;;;;;;;;;14.93;nan;101012.00;4981419;28;19944;-84
2023/02/20 12:39:55;;;;;;;;;;;;;;;14.92;nan;101003.09;4983728;28;20363;-83
2023/02/20 12:42:20;;;;;;;;;;;;;;;14.89;nan;101008.22;4986063;28;19918;-83
2023/02/20 12:45:03;;;;;;;;;;;;;;;14.92;nan;101007.69;4978080;28;19956;-83
2023/02/20 12:47:30;;;;;;;;;;;;;;;14.90;nan;100999.03;4978896;28;19925;-83
2023/02/20 12:50:07;;;;;;;;;;;;;;;14.87;nan;100999.56;4987604;28;19953;-83
2023/02/20 12:52:44;;;;;;;;;;;;;;;14.82;nan;100995.00;4986294;28;19924;-83
2023/02/20 12:55:15;;;;;;;;;;;;;;;14.81;nan;100996.88;4981291;28;20069;-83
2023/02/20 12:57:46;;;;;;;;;;;;;;;14.76;nan;100983.41;4983469;28;19922;-83
2023/02/20 13:00:17;;;;;;;;;;;;;;;14.74;nan;100982.06;4987446;28;20590;-84
2023/02/20 13:02:45;;;;;;;;;;;;;;;14.75;nan;100989.88;4989477;28;20009;-83
2023/02/20 13:05:12;;;;;;;;;;;;;;;14.76;nan;101005.00;4979810;28;20024;-84
2023/02/20 13:07:51;;;;;;;;;;;;;;;14.71;nan;100990.66;4980343;28;19988;-83
2023/02/20 13:10:16;;;;;;;;;;;;;;;14.69;nan;100993.63;4976703;28;19921;-83
2023/02/20 13:12:42;;;;;;;;;;;;;;;14.70;nan;100995.25;4982169;28;20209;-83
2023/02/20 13:15:16;;;;;;;;;;;;;;;14.74;nan;100998.25;4979934;28;19913;-84
2023/02/20 13:18:01;;;;;;;;;;;;;;;14.78;nan;101002.81;4981184;28;19933;-84